createdAt,value
2017-07-22T00:00:33.226Z,3.90
2017-07-22T00:03:00.174Z,4.10
2017-07-22T00:05:27.097Z,3.30
2017-07-22T00:07:54.073Z,3.73
2017-07-22T00:10:21.420Z,3.63
2017-07-22T00:12:48.369Z,3.67
2017-07-22T00:15:15.318Z,3.97
2017-07-22T00:17:42.201Z,3.67
2017-07-22T00:20:09.093Z,3.80
2017-07-22T00:22:36.058Z,4.20
2017-07-22T00:25:03.009Z,4.03
2017-07-22T00:27:30.353Z,3.40
2017-07-22T00:29:57.303Z,3.70
2017-07-22T00:32:24.249Z,3.30
2017-07-22T00:34:51.196Z,3.47
2017-07-22T00:37:18.337Z,3.10
2017-07-22T00:39:45.293Z,3.60
2017-07-22T00:42:12.181Z,2.90
2017-07-22T00:44:39.194Z,4.20
2017-07-22T00:47:06.474Z,4.27
2017-07-22T00:49:33.493Z,3.80
2017-07-22T00:52:00.432Z,4.20
2017-07-22T00:54:27.384Z,4.90
2017-07-22T00:56:54.327Z,6.03
2017-07-22T00:59:21.207Z,6.40
2017-07-22T01:01:48.125Z,6.77
2017-07-22T01:04:15.009Z,7.10
2017-07-22T01:06:41.888Z,7.63
2017-07-22T01:09:08.857Z,9.40
2017-07-22T01:11:36.215Z,8.47
2017-07-22T01:14:03.162Z,10.87
2017-07-22T01:16:30.498Z,12.03
2017-07-22T01:18:57.466Z,11.67
2017-07-22T01:21:24.355Z,10.30
2017-07-22T01:23:51.353Z,11.50
2017-07-22T01:26:18.309Z,11.90
2017-07-22T01:28:45.653Z,12.33
2017-07-22T01:31:12.569Z,11.20
2017-07-22T01:33:39.466Z,11.80
2017-07-22T01:36:06.789Z,11.87
2017-07-22T01:38:33.745Z,11.43
2017-07-22T01:41:00.630Z,11.30
2017-07-22T01:43:27.555Z,15.00
2017-07-22T01:45:54.834Z,13.40
2017-07-22T01:48:21.717Z,12.30
2017-07-22T01:50:48.642Z,14.03
2017-07-22T01:53:15.526Z,15.70
2017-07-22T01:55:42.410Z,14.27
2017-07-22T01:58:09.329Z,17.47
2017-07-22T02:00:36.720Z,17.30
2017-07-22T02:03:03.598Z,17.10
2017-07-22T02:05:30.572Z,17.07
2017-07-22T02:07:57.929Z,13.10
2017-07-22T02:10:25.292Z,13.63
2017-07-22T02:12:52.646Z,10.30
2017-07-22T02:15:19.993Z,9.23
2017-07-22T02:17:46.937Z,8.97
2017-07-22T02:20:13.865Z,7.97
2017-07-22T02:22:40.935Z,9.70
2017-07-22T02:25:07.818Z,8.83
2017-07-22T02:27:34.831Z,9.53
2017-07-22T02:30:02.115Z,8.63
2017-07-22T02:32:29.022Z,8.40
2017-07-22T02:34:55.968Z,9.07
2017-07-22T02:37:22.913Z,7.63
2017-07-22T02:39:49.793Z,8.20
2017-07-22T02:42:16.709Z,7.50
2017-07-22T02:44:43.654Z,7.60
2017-07-22T02:47:10.606Z,6.53
2017-07-22T02:49:37.545Z,6.63
2017-07-22T02:52:04.438Z,6.67
2017-07-22T02:54:31.320Z,6.77
2017-07-22T02:56:58.284Z,5.27
2017-07-22T02:59:25.166Z,5.23
2017-07-22T03:01:52.058Z,4.90
2017-07-22T03:04:18.969Z,5.70
2017-07-22T03:06:45.867Z,5.40
2017-07-22T03:09:12.927Z,7.27
2017-07-22T03:11:40.208Z,9.00
2017-07-22T03:14:07.118Z,8.90
2017-07-22T03:16:34.065Z,12.57
2017-07-22T03:19:01.417Z,10.30
2017-07-22T03:21:28.366Z,13.90
2017-07-22T03:23:55.314Z,12.60
2017-07-22T03:26:22.252Z,11.47
2017-07-22T03:28:49.209Z,10.83
2017-07-22T03:31:16.148Z,11.00
2017-07-22T03:33:43.048Z,12.30
2017-07-22T03:36:09.937Z,9.83
2017-07-22T03:38:36.860Z,10.23
2017-07-22T03:41:03.791Z,11.13
2017-07-22T03:43:30.733Z,10.23
2017-07-22T03:45:57.678Z,11.47
2017-07-22T03:48:24.573Z,11.47
2017-07-22T03:50:51.478Z,12.53
2017-07-22T03:53:18.828Z,12.47
2017-07-22T03:55:46.185Z,14.47
2017-07-22T03:58:13.537Z,14.43
2017-07-22T04:00:40.422Z,14.73
2017-07-22T04:03:07.370Z,16.10
2017-07-22T04:05:34.253Z,18.13
2017-07-22T04:08:01.150Z,16.73
2017-07-22T04:10:28.170Z,15.83
2017-07-22T04:12:55.123Z,16.80
2017-07-22T04:15:22.464Z,19.87
2017-07-22T04:17:49.395Z,17.10
2017-07-22T04:20:16.324Z,17.60
2017-07-22T04:22:43.250Z,17.67
2017-07-22T04:25:10.253Z,18.67
2017-07-22T04:27:37.141Z,20.00
2017-07-22T04:30:04.994Z,17.60
2017-07-22T04:32:31.921Z,20.40
2017-07-22T04:34:58.873Z,23.40
2017-07-22T04:37:26.201Z,22.83
2017-07-22T04:39:53.170Z,21.40
2017-07-22T04:42:20.551Z,20.70
2017-07-22T04:44:47.854Z,19.63
2017-07-22T04:47:14.825Z,20.37
2017-07-22T04:49:42.177Z,22.10
2017-07-22T04:52:09.129Z,20.13
2017-07-22T04:54:36.490Z,23.37
2017-07-22T04:57:03.837Z,21.90
2017-07-22T04:59:30.786Z,21.40
2017-07-22T05:01:57.728Z,20.77
2017-07-22T05:04:24.672Z,19.90
2017-07-22T05:06:51.625Z,19.50
2017-07-22T05:09:18.972Z,21.00
2017-07-22T05:11:46.061Z,19.20
2017-07-22T05:14:12.981Z,19.77
2017-07-22T05:16:40.271Z,19.20
2017-07-22T05:19:07.270Z,20.03
2017-07-22T05:21:34.221Z,21.77
2017-07-22T05:24:01.170Z,20.07
2017-07-22T05:26:28.114Z,19.77
2017-07-22T05:28:55.060Z,20.47
2017-07-22T05:31:21.949Z,20.53
2017-07-22T05:33:48.865Z,22.70
2017-07-22T05:36:16.149Z,23.00
2017-07-22T05:38:43.068Z,25.57
2017-07-22T05:41:10.414Z,22.20
2017-07-22T05:43:37.766Z,22.10
2017-07-22T05:46:04.909Z,25.20
2017-07-22T05:48:31.793Z,27.10
2017-07-22T05:50:58.691Z,23.53
2017-07-22T05:53:25.657Z,20.23
2017-07-22T05:55:53.009Z,21.50
2017-07-22T05:58:19.958Z,20.87
2017-07-22T06:00:47.253Z,22.27
2017-07-22T06:03:14.152Z,21.07
2017-07-22T06:05:41.074Z,21.87
2017-07-22T06:08:07.969Z,23.90
2017-07-22T06:10:34.993Z,21.83
2017-07-22T06:13:01.937Z,21.67
2017-07-22T06:15:28.889Z,20.20
2017-07-22T06:17:55.838Z,21.63
2017-07-22T06:20:23.194Z,22.93
2017-07-22T06:22:50.542Z,22.20
2017-07-22T06:25:17.495Z,19.73
2017-07-22T06:27:44.373Z,20.47
2017-07-22T06:30:11.281Z,24.70
2017-07-22T06:32:38.221Z,21.13
2017-07-22T06:35:05.173Z,20.80
2017-07-22T06:37:32.138Z,19.93
2017-07-22T06:39:59.430Z,19.63
2017-07-22T06:42:26.417Z,16.30
2017-07-22T06:44:53.345Z,19.97
2017-07-22T06:47:20.329Z,16.37
2017-07-22T06:49:47.610Z,15.70
2017-07-22T06:52:14.521Z,17.80
2017-07-22T06:54:41.869Z,16.87
2017-07-22T06:57:08.821Z,15.70
2017-07-22T06:59:36.196Z,15.97
2017-07-22T07:02:03.229Z,16.47
2017-07-22T07:04:30.592Z,16.20
2017-07-22T07:06:57.933Z,15.30
2017-07-22T07:09:24.890Z,16.00
2017-07-22T07:11:52.233Z,11.90
2017-07-22T07:14:19.175Z,14.97
2017-07-22T07:16:46.130Z,14.53
2017-07-22T07:19:13.018Z,11.50
2017-07-22T07:21:39.933Z,11.57
2017-07-22T07:24:07.320Z,10.90
2017-07-22T07:26:34.218Z,10.70
2017-07-22T07:29:01.151Z,12.23
2017-07-22T07:31:28.119Z,9.20
2017-07-22T07:33:55.060Z,9.27
2017-07-22T07:36:22.005Z,7.13
2017-07-22T07:38:48.952Z,7.00
2017-07-22T07:41:16.053Z,7.40
2017-07-22T07:43:43.012Z,5.60
2017-07-22T07:46:09.965Z,5.87
2017-07-22T07:48:36.843Z,5.93
2017-07-22T07:51:03.853Z,5.30
2017-07-22T07:53:30.753Z,6.07
2017-07-22T07:55:57.641Z,4.80
2017-07-22T07:58:24.573Z,5.17
2017-07-22T08:00:51.537Z,4.80
2017-07-22T08:03:18.482Z,4.30
2017-07-22T08:05:45.397Z,5.30
2017-07-22T08:08:12.276Z,5.00
2017-07-22T08:10:39.221Z,4.83
2017-07-22T08:13:06.176Z,4.80
2017-07-22T08:15:33.118Z,5.17
2017-07-22T08:18:00.057Z,5.00
2017-07-22T08:20:27.006Z,5.03
2017-07-22T08:22:53.958Z,5.87
2017-07-22T08:25:21.286Z,5.50
2017-07-22T08:27:48.295Z,5.50
2017-07-22T08:30:15.301Z,4.80
2017-07-22T08:32:42.234Z,5.20
2017-07-22T08:35:09.197Z,5.00
2017-07-22T08:37:36.145Z,4.37
2017-07-22T08:40:03.073Z,3.73
2017-07-22T08:42:30.049Z,4.23
2017-07-22T08:44:57.390Z,4.23
2017-07-22T08:47:24.309Z,4.90
2017-07-22T08:49:51.265Z,4.40
2017-07-22T08:52:18.218Z,4.57
2017-07-22T08:54:45.187Z,4.30
2017-07-22T08:57:12.522Z,4.20
2017-07-22T08:59:39.465Z,4.10
2017-07-22T09:02:06.413Z,5.53
2017-07-22T09:04:33.371Z,4.70
2017-07-22T09:07:00.712Z,3.73
2017-07-22T09:09:27.661Z,3.30
2017-07-22T09:11:54.621Z,3.90
2017-07-22T09:14:21.897Z,3.70
2017-07-22T09:16:48.805Z,3.60
2017-07-22T09:19:15.753Z,3.20
2017-07-22T09:21:42.706Z,3.17
2017-07-22T09:24:09.633Z,3.20
2017-07-22T09:26:36.534Z,3.10
2017-07-22T09:29:03.466Z,3.13
2017-07-22T09:31:30.425Z,3.10
2017-07-22T09:33:57.309Z,2.97
2017-07-22T09:36:24.218Z,2.80
2017-07-22T09:38:51.161Z,3.70
2017-07-22T09:41:18.221Z,2.80
2017-07-22T09:43:45.574Z,3.40
2017-07-22T09:46:12.950Z,3.50
2017-07-22T09:48:40.274Z,3.47
2017-07-22T09:51:07.172Z,3.40
2017-07-22T09:53:34.070Z,3.60
2017-07-22T09:56:00.988Z,4.00
2017-07-22T09:58:28.276Z,4.10
2017-07-22T10:00:55.212Z,3.70
2017-07-22T10:03:22.116Z,5.20
2017-07-22T10:05:49.001Z,5.17
2017-07-22T10:08:16.007Z,3.63
2017-07-22T10:10:42.952Z,3.63
2017-07-22T10:13:10.004Z,4.33
2017-07-22T10:15:36.890Z,5.43
2017-07-22T10:18:03.793Z,5.10
2017-07-22T10:20:30.737Z,5.20
2017-07-22T10:22:57.685Z,4.80
2017-07-22T10:25:24.987Z,4.77
2017-07-22T10:27:51.921Z,5.60
2017-07-22T10:30:18.805Z,4.90
2017-07-22T10:32:45.702Z,4.83
2017-07-22T10:35:13.133Z,4.90
2017-07-22T10:37:40.082Z,4.33
2017-07-22T10:40:07.042Z,4.50
2017-07-22T10:42:34.430Z,4.73
2017-07-22T10:45:01.329Z,5.40
2017-07-22T10:47:28.277Z,5.03
2017-07-22T10:49:55.193Z,4.80
2017-07-22T10:52:22.089Z,4.97
2017-07-22T10:54:49.390Z,5.30
2017-07-22T10:57:16.281Z,5.03
2017-07-22T10:59:43.626Z,5.57
2017-07-22T11:02:10.579Z,5.60
2017-07-22T11:04:37.463Z,5.30
2017-07-22T11:07:04.466Z,5.40
2017-07-22T11:09:31.418Z,5.97
2017-07-22T11:11:58.745Z,5.80
2017-07-22T11:14:25.631Z,5.90
2017-07-22T11:16:52.965Z,5.53
2017-07-22T11:19:19.905Z,5.67
2017-07-22T11:21:46.861Z,4.97
2017-07-22T11:24:13.805Z,4.97
2017-07-22T11:26:40.765Z,4.80
2017-07-22T11:29:08.080Z,5.20
2017-07-22T11:31:35.054Z,5.00
2017-07-22T11:34:01.946Z,5.13
2017-07-22T11:36:28.861Z,4.17
2017-07-22T11:38:56.201Z,4.90
2017-07-22T11:41:23.149Z,5.40
2017-07-22T11:43:50.094Z,4.47
2017-07-22T11:46:17.041Z,4.50
2017-07-22T11:48:43.933Z,4.80
2017-07-22T11:51:10.876Z,5.03
2017-07-22T11:53:38.026Z,4.87
2017-07-22T11:56:06.722Z,3.90
2017-07-22T11:58:33.765Z,4.10
2017-07-22T12:01:00.918Z,4.00
2017-07-22T12:03:27.919Z,3.90
2017-07-22T12:05:54.866Z,4.00
2017-07-22T12:08:21.857Z,4.53
2017-07-22T12:10:48.735Z,3.90
2017-07-22T12:13:15.762Z,4.00
2017-07-22T12:15:42.798Z,4.30
2017-07-22T12:18:09.681Z,4.80
2017-07-22T12:20:36.562Z,4.60
2017-07-22T12:23:03.477Z,4.30
2017-07-22T12:25:30.400Z,4.37
2017-07-22T12:27:57.677Z,5.33
2017-07-22T12:30:24.590Z,6.13
2017-07-22T12:32:51.536Z,5.27
2017-07-22T12:35:18.421Z,4.30
2017-07-22T12:37:45.335Z,4.30
2017-07-22T12:40:12.275Z,4.73
2017-07-22T12:42:39.165Z,5.53
2017-07-22T12:45:10.501Z,4.40
2017-07-22T12:47:37.394Z,4.40
2017-07-22T12:50:04.277Z,4.17
2017-07-22T12:52:31.620Z,4.43
2017-07-22T12:54:58.513Z,4.47
2017-07-22T12:57:25.505Z,4.30
2017-07-22T12:59:52.388Z,4.90
2017-07-22T13:02:19.398Z,5.10
2017-07-22T13:04:46.345Z,4.53
2017-07-22T13:07:13.294Z,4.70
2017-07-22T13:09:40.185Z,5.00
2017-07-22T13:12:07.185Z,5.00
2017-07-22T13:14:34.144Z,5.30
2017-07-22T13:17:01.488Z,4.70
2017-07-22T13:19:28.411Z,4.37
2017-07-22T13:21:55.378Z,4.07
2017-07-22T13:24:22.327Z,4.83
2017-07-22T13:26:49.253Z,4.20
2017-07-22T13:29:16.221Z,4.40
2017-07-22T13:31:43.166Z,4.37
2017-07-22T13:34:10.089Z,3.87
2017-07-22T13:36:36.974Z,4.03
2017-07-22T13:39:04.325Z,3.70
2017-07-22T13:41:31.642Z,3.67
2017-07-22T13:43:58.616Z,4.50
2017-07-22T13:46:25.569Z,4.27
2017-07-22T13:48:53.173Z,4.07
2017-07-22T13:51:20.064Z,3.80
2017-07-22T13:53:46.941Z,4.30
2017-07-22T13:56:13.858Z,3.87
2017-07-22T13:58:40.767Z,3.87
2017-07-22T14:01:07.760Z,4.57
2017-07-22T14:03:35.112Z,4.50
2017-07-22T14:06:02.102Z,4.50
2017-07-22T14:08:28.985Z,4.20
2017-07-22T14:10:55.913Z,4.23
2017-07-22T14:13:22.793Z,4.37
2017-07-22T14:15:49.745Z,3.93
2017-07-22T14:18:17.054Z,3.80
2017-07-22T14:20:43.959Z,3.20
2017-07-22T14:23:10.889Z,3.80
2017-07-22T14:25:37.793Z,3.60
2017-07-22T14:28:04.737Z,3.37
2017-07-22T14:30:31.729Z,3.87
2017-07-22T14:32:58.701Z,4.33
2017-07-22T14:35:25.723Z,3.47
2017-07-22T14:37:52.721Z,3.90
2017-07-22T14:40:19.673Z,3.53
2017-07-22T14:42:46.634Z,4.17
2017-07-22T14:45:13.983Z,3.93
2017-07-22T14:47:41.256Z,3.60
2017-07-22T14:50:08.173Z,4.20
2017-07-22T14:52:35.168Z,3.67
2017-07-22T14:55:02.080Z,4.00
2017-07-22T14:57:29.424Z,4.00
2017-07-22T14:59:56.345Z,3.93
2017-07-22T15:02:23.363Z,4.03
2017-07-22T15:04:50.265Z,4.07
2017-07-22T15:07:17.209Z,3.97
2017-07-22T15:09:44.164Z,3.80
2017-07-22T15:12:11.513Z,4.10
2017-07-22T15:14:38.457Z,3.97
2017-07-22T15:17:05.369Z,3.80
2017-07-22T15:19:32.252Z,4.03
2017-07-22T15:21:59.605Z,4.20
2017-07-22T15:24:26.575Z,3.63
2017-07-22T15:26:53.493Z,4.13
2017-07-22T15:29:20.422Z,4.10
2017-07-22T15:31:47.361Z,4.50
2017-07-22T15:34:14.238Z,3.90
2017-07-22T15:36:41.228Z,5.70
2017-07-22T15:39:08.138Z,4.90
2017-07-22T15:41:35.482Z,4.50
2017-07-22T15:44:02.361Z,4.40
2017-07-22T15:46:29.273Z,4.60
2017-07-22T15:48:56.198Z,3.70
2017-07-22T15:51:23.165Z,3.97
2017-07-22T15:53:50.045Z,4.07
2017-07-22T15:56:17.057Z,4.47
2017-07-22T15:58:43.943Z,3.77
2017-07-22T16:01:10.957Z,3.77
2017-07-22T16:03:37.898Z,4.30
2017-07-22T16:06:04.945Z,4.00
2017-07-22T16:08:31.942Z,3.50
2017-07-22T16:10:58.837Z,3.80
2017-07-22T16:13:25.785Z,3.43
2017-07-22T16:15:52.779Z,4.33
2017-07-22T16:18:19.728Z,4.00
2017-07-22T16:20:46.603Z,5.07
2017-07-22T16:23:13.573Z,3.83
2017-07-22T16:25:40.634Z,3.90
2017-07-22T16:28:08.285Z,3.33
2017-07-22T16:30:35.178Z,3.73
2017-07-22T16:33:02.073Z,3.30
2017-07-22T16:35:29.017Z,3.27
2017-07-22T16:37:55.933Z,3.30
2017-07-22T16:40:22.913Z,3.27
2017-07-22T16:42:49.857Z,3.33
2017-07-22T16:45:16.805Z,2.70
2017-07-22T16:47:43.733Z,2.53
2017-07-22T16:50:10.618Z,2.73
2017-07-22T16:52:38.000Z,2.87
2017-07-22T16:55:05.048Z,3.07
2017-07-22T16:57:31.953Z,2.87
2017-07-22T16:59:58.893Z,2.80
2017-07-22T17:02:25.805Z,4.40
2017-07-22T17:04:52.786Z,3.80
2017-07-22T17:07:19.737Z,3.23
2017-07-22T17:09:46.621Z,2.60
2017-07-22T17:12:13.534Z,3.30
2017-07-22T17:14:40.905Z,2.90
2017-07-22T17:17:08.243Z,3.50
2017-07-22T17:19:35.521Z,2.93
2017-07-22T17:22:02.437Z,2.90
2017-07-22T17:24:29.381Z,3.03
2017-07-22T17:26:56.266Z,3.27
2017-07-22T17:29:23.275Z,3.90
2017-07-22T17:31:50.157Z,3.03
2017-07-22T17:34:17.109Z,6.00
2017-07-22T17:36:44.112Z,2.80
2017-07-22T17:39:10.995Z,3.37
2017-07-22T17:41:37.909Z,2.97
2017-07-22T17:44:04.861Z,3.40
2017-07-22T17:46:32.213Z,3.27
2017-07-22T17:48:59.561Z,3.30
2017-07-22T17:51:26.461Z,3.40
2017-07-22T17:53:53.346Z,3.30
2017-07-22T17:56:20.710Z,3.50
2017-07-22T17:58:47.589Z,3.30
2017-07-22T18:01:14.497Z,3.00
2017-07-22T18:03:41.821Z,2.90
2017-07-22T18:06:08.797Z,3.80
2017-07-22T18:08:35.745Z,3.30
2017-07-22T18:11:02.662Z,3.70
2017-07-22T18:13:29.554Z,3.57
2017-07-22T18:15:56.865Z,3.37
2017-07-22T18:18:23.841Z,3.50
2017-07-22T18:20:50.785Z,3.73
2017-07-22T18:23:18.045Z,3.57
2017-07-22T18:25:44.928Z,4.43
2017-07-22T18:28:11.816Z,3.70
2017-07-22T18:30:38.777Z,4.77
2017-07-22T18:33:05.689Z,3.90
2017-07-22T18:35:32.673Z,4.30
2017-07-22T18:37:59.613Z,4.40
2017-07-22T18:40:26.506Z,4.37
2017-07-22T18:42:53.385Z,4.43
2017-07-22T18:45:20.294Z,4.70
2017-07-22T18:47:47.197Z,4.23
2017-07-22T18:50:14.145Z,4.50
2017-07-22T18:52:41.090Z,5.00
2017-07-22T18:55:08.033Z,6.20
2017-07-22T18:57:34.990Z,5.87
2017-07-22T19:00:02.269Z,5.70
2017-07-22T19:02:29.189Z,5.60
2017-07-22T19:04:56.541Z,5.00
2017-07-22T19:07:23.481Z,4.80
2017-07-22T19:09:50.374Z,5.00
2017-07-22T19:12:17.281Z,5.27
2017-07-22T19:14:44.575Z,4.53
2017-07-22T19:17:11.488Z,4.83
2017-07-22T19:19:38.828Z,5.67
2017-07-22T19:22:05.781Z,5.50
2017-07-22T19:24:32.685Z,5.60
2017-07-22T19:26:59.668Z,5.60
2017-07-22T19:29:26.625Z,5.67
2017-07-22T19:31:53.562Z,5.50
2017-07-22T19:34:20.446Z,5.60
2017-07-22T19:36:47.377Z,5.80
2017-07-22T19:39:14.653Z,5.80
2017-07-22T19:41:41.869Z,5.30
2017-07-22T19:44:09.221Z,5.53
2017-07-22T19:46:36.170Z,5.10
2017-07-22T19:49:03.481Z,5.27
2017-07-22T19:51:30.466Z,5.63
2017-07-22T19:53:57.414Z,5.40
2017-07-22T19:56:24.357Z,5.63
2017-07-22T19:58:51.236Z,5.97
2017-07-22T20:01:18.248Z,6.00
2017-07-22T20:03:45.174Z,6.30
2017-07-22T20:06:12.145Z,6.73
2017-07-22T20:08:39.094Z,6.17
2017-07-22T20:11:06.037Z,6.37
2017-07-22T20:13:32.989Z,6.13
2017-07-22T20:15:59.874Z,5.47
2017-07-22T20:18:26.781Z,6.60
2017-07-22T20:20:54.129Z,17.17
2017-07-22T20:23:21.061Z,6.73
2017-07-22T20:25:48.026Z,5.93
2017-07-22T20:28:14.977Z,5.40
2017-07-22T20:30:42.325Z,6.50
2017-07-22T20:33:09.274Z,6.70
2017-07-22T20:35:36.226Z,6.50
2017-07-22T20:38:03.150Z,7.10
2017-07-22T20:40:30.109Z,7.17
2017-07-22T20:42:57.058Z,6.47
2017-07-22T20:45:24.063Z,6.63
2017-07-22T20:47:51.053Z,6.00
2017-07-22T20:50:17.936Z,6.20
2017-07-22T20:52:44.866Z,6.30
2017-07-22T20:55:12.197Z,6.27
2017-07-22T20:57:39.145Z,6.70
2017-07-22T21:00:06.026Z,6.70
2017-07-22T21:02:32.910Z,6.57
2017-07-22T21:04:59.829Z,6.80
2017-07-22T21:07:26.716Z,6.00
2017-07-22T21:09:53.597Z,6.47
2017-07-22T21:12:20.625Z,6.80
2017-07-22T21:14:48.016Z,6.30
2017-07-22T21:17:15.022Z,6.87
2017-07-22T21:19:41.930Z,6.30
2017-07-22T21:22:08.916Z,6.33
2017-07-22T21:24:35.865Z,6.30
2017-07-22T21:27:02.853Z,6.40
2017-07-22T21:29:29.857Z,6.43
2017-07-22T21:31:56.804Z,6.20
2017-07-22T21:34:23.762Z,6.20
2017-07-22T21:36:51.039Z,6.57
2017-07-22T21:39:17.960Z,6.67
2017-07-22T21:41:45.305Z,6.17
2017-07-22T21:44:12.258Z,6.00
2017-07-22T21:46:39.203Z,6.67
2017-07-22T21:49:06.150Z,6.93
2017-07-22T21:51:33.093Z,6.83
2017-07-22T21:54:00.041Z,6.60
2017-07-22T21:56:26.992Z,6.70
2017-07-22T21:58:53.943Z,6.37
2017-07-22T22:01:20.858Z,6.40
2017-07-22T22:03:47.741Z,7.00
2017-07-22T22:06:15.053Z,6.33
2017-07-22T22:08:41.933Z,6.80
2017-07-22T22:11:09.279Z,6.83
2017-07-22T22:13:36.230Z,6.40
2017-07-22T22:16:03.682Z,6.00
2017-07-22T22:18:30.636Z,7.20
2017-07-22T22:20:57.950Z,6.73
2017-07-22T22:23:24.934Z,5.87
2017-07-22T22:25:51.994Z,6.20
2017-07-22T22:28:19.342Z,7.83
2017-07-22T22:30:46.395Z,5.97
2017-07-22T22:33:13.274Z,5.47
2017-07-22T22:35:40.193Z,4.87
2017-07-22T22:38:07.481Z,4.80
2017-07-22T22:40:34.373Z,5.83
2017-07-22T22:43:01.320Z,5.90
2017-07-22T22:45:28.208Z,7.00
2017-07-22T22:47:55.373Z,6.87
2017-07-22T22:50:22.365Z,6.50
2017-07-22T22:52:49.309Z,6.87
2017-07-22T22:55:16.261Z,9.63
2017-07-22T22:57:43.210Z,8.47
2017-07-22T23:00:10.149Z,9.53
2017-07-22T23:02:37.034Z,7.83
2017-07-22T23:05:04.092Z,11.17
2017-07-22T23:07:30.981Z,10.40
2017-07-22T23:09:58.041Z,8.90
2017-07-22T23:12:24.990Z,9.43
2017-07-22T23:14:51.937Z,8.03
2017-07-22T23:17:18.886Z,7.63
2017-07-22T23:19:45.766Z,8.20
2017-07-22T23:22:12.768Z,9.70
2017-07-22T23:24:39.713Z,9.03
2017-07-22T23:27:06.666Z,8.70
2017-07-22T23:29:33.557Z,10.37
2017-07-22T23:32:00.563Z,10.80
2017-07-22T23:34:27.445Z,8.63
2017-07-22T23:36:54.329Z,9.60
2017-07-22T23:39:21.293Z,10.67
2017-07-22T23:41:48.241Z,10.67
2017-07-22T23:44:15.191Z,10.80
2017-07-22T23:46:42.134Z,12.40
2017-07-22T23:49:09.030Z,13.43
2017-07-22T23:51:35.933Z,11.87
2017-07-22T23:54:03.273Z,12.90
2017-07-22T23:56:30.230Z,11.40
2017-07-22T23:58:57.122Z,11.07
